Terminal Aerodrome Forecast
Issued by NWS Melbourne, FL

Home | Current Version | Previous Version | Text Only | Print | Product List | Glossary On
Versions: 1 2 3 4 5 6 7 8 9 10 11 12 13 14 15
000
FTUS42 KMLB 071049 AAA
TAFDAB
TAF AMD
KDAB 071049Z 0711/0806 27005KT P6SM SCT003
      TEMPO 0711/0713 2SM BR BKN003
     FM071400 31007KT P6SM FEW020 FEW250
     FM072100 05006KT P6SM FEW250
     FM080000 VRB03KT P6SM FEW250=

USA.gov is the U.S. government's official web portal to all federal, state and local government web resources and services.